Detalii statie VALKAPA [00001D0A]

Toti senzorii

Date Temperatura solului [C]Precipitatii [mm]Voltaj baterie [mV]Leaf Wetness [Min]HC Air temperature [C]HC Relative humidity [%]Punctul de roua [C]
medieminmaxsumaultimatimpmedieminmaxmediemediemin
2018-12-09 16:00:00 0 6992 6.75 6.45 7.05 79.7 3.4 3.1
2018-12-09 17:00:00 0 6942 6.13 5.93 6.38 83.93 3.5 3.3
2018-12-09 18:00:00 0.2 6922 5.64 5.46 5.89 88.16 3.7 3.3
2018-12-09 19:00:00 0 6914 5.5 5.36 5.64 92.26 4.2 4
2018-12-09 20:00:00 0 6894 5.44 5.25 5.66 94.99 4.5 4.4
2018-12-09 21:00:00 0 6884 5.4 5.36 5.46 94.6 4.4 4.4
2018-12-09 22:00:00 0 6874 5.33 5.2 5.43 93.54 4.2 4.1
2018-12-09 23:00:00 0 6864 5.36 5.22 5.53 92.41 4.1 4
2018-12-10 00:00:00 0 6854 5.09 4.99 5.27 95.2 4.2 4.2
2018-12-10 01:00:00 0 6834 4.66 4.52 4.92 98.9 4.4 4.3
2018-12-10 02:00:00 0 6826 4.44 4.36 4.52 100 4.3 4.3
2018-12-10 03:00:00 0 6816 4.04 3.9 4.29 100 4 3.9
2018-12-10 04:00:00 0 6806 3.95 3.91 4 100 3.9 3.9
2018-12-10 05:00:00 0 6786 4.03 3.99 4.08 100 3.9 3.9
2018-12-10 06:00:00 0 6786 4.03 3.73 4.22 100 3.9 3.7
2018-12-10 07:00:00 0 6776 3.31 2.96 3.65 100 3.2 2.9
2018-12-10 08:00:00 0 6776 2.91 2.48 3.15 100 2.8 2.4
2018-12-10 09:00:00 0 6796 2.7 2.37 3.15 100 2.6 2.3
2018-12-10 10:00:00 0 6796 3.21 3.13 3.35 100 3.1 3.1
2018-12-10 11:00:00 0 6864 3.66 3.36 3.98 100 3.6 3.3
2018-12-10 12:00:00 0 6972 4.46 4.03 5.06 99.74 4.3 4
2018-12-10 13:00:00 0.8 6982 4.81 4.56 5.12 100 4.7 4.5
2018-12-10 14:00:00 0 6962 5.44 5.09 5.69 100 5.3 5
2018-12-10 15:00:00 0 7010 6.09 5.71 6.73 99.21 5.9 5.6
2018-12-10 16:00:00 0 6914 5.56 5.49 5.62 100 5.5 5.4
2018-12-10 17:00:00 0 6854 5.15 4.63 5.52 100 5.1 4.6
2018-12-10 18:00:00 0 6826 4.43 4.25 4.67 99.97 4.3 4.2
2018-12-10 19:00:00 0 6796 3.95 3.7 4.3 99.98 3.8 3.7
2018-12-10 20:00:00 0.2 6776 3.77 3.67 3.9 98.42 3.4 1.3
2018-12-10 21:00:00 0.2 6766 3.28 2.97 3.56 92.68 2.1 1.4
2018-12-10 22:00:00 0 6756 2.92 2.57 3.26 98.45 2.6 2.3
2018-12-10 23:00:00 0 6756 2.38 2.12 2.58 100 2.3 2.1
2018-12-11 00:00:00 0 6748 1.49 1.23 1.95 100 1.4 1.2
2018-12-11 01:00:00 0 6748 1.42 1.12 1.85 100 1.3 1.1
2018-12-11 02:00:00 0 6748 1.12 0.99 1.25 100 1 0.9
2018-12-11 03:00:00 0 6738 0.58 0.1 1.19 100 0.5 0.1
2018-12-11 04:00:00 0 6738 0.4 -0.06 0.85 100 0.3 0
2018-12-11 05:00:00 0 6738 0.74 0.14 1.32 100 0.7 0.1
2018-12-11 06:00:00 0 6738 1.01 0.82 1.25 100 0.9 0.8
2018-12-11 07:00:00 0 6738 0.78 0.74 0.83 100 0.7 0.7
2018-12-11 08:00:00 0 6748 0.69 0.31 0.88 100 0.6 0.3
2018-12-11 09:00:00 0 6748 0.31 0.22 0.43 100 0.2 0.2
2018-12-11 10:00:00 0.2 6766 0.59 0.41 0.77 100 0.5 0.4
2018-12-11 11:00:00 0 6854 0.68 0.58 0.78 100 0.6 0.5
2018-12-11 12:00:00 0 6864 0.68 0.49 0.92 100 0.6 0.4
2018-12-11 13:00:00 0 6864 0.14 -0.15 0.4 100 0.1 0
2018-12-11 14:00:00 0 6806 -0.35 -0.51 -0.14 100 -0.2 -0.4